Airport View

Enter AWOS ICAO identifier for current METAR.

ex. KFNL

KSNY 051253Z AUTO 27004KT 10SM CLR 17/13 A3008 RMK AO2 SLP138 T01720133

5 Aug 2020 12:59

Frequency: 125.775

Phone: 308-254-3525

Other Area AWOS: KIBM - KSTK - KHEQ - K82V

TAF KSNY 051127Z 0512/0612 VRB05KT P6SM SKC FM051400 11008KT P6SM SKC FM052200 14010KT P6SM VCTS SCT080CB BKN250 FM060400 22008KT P6SM SCT100 OVC250